Time;durP1;ratioP1;P1;durP2;ratioP2;P2;SDS_P1;SDS_P2;PMS_P1;PMS_P2;Temp;Humidity;BMP_temperature;BMP_pressure;BME280_temperature;BME280_humidity;BME280_pressure;Samples;Min_cycle;Max_cycle;Signal;HPM_P1;HPM_P2
2022/07/30 00:00:06;;;;;;;14.00;4.65;;;15.50;99.90;;;;;;5128752;27;20050;-73
2022/07/30 00:02:32;;;;;;;7.68;4.25;;;15.50;99.90;;;;;;5107752;27;20118;-73
2022/07/30 00:04:57;;;;;;;9.85;4.47;;;15.50;99.90;;;;;;5117273;27;20453;-73
2022/07/30 00:07:23;;;;;;;9.57;5.75;;;15.60;99.90;;;;;;5125596;27;20043;-74
2022/07/30 00:09:49;;;;;;;8.23;5.32;;;15.70;99.90;;;;;;5127710;27;20047;-74
2022/07/30 00:12:15;;;;;;;7.13;4.88;;;15.60;99.90;;;;;;5125052;27;20454;-74
2022/07/30 00:14:40;;;;;;;6.38;4.63;;;15.70;99.90;;;;;;5106171;27;20086;-74
2022/07/30 00:17:06;;;;;;;4.78;4.25;;;15.60;99.90;;;;;;5125047;27;20051;-74
2022/07/30 00:19:32;;;;;;;9.32;5.40;;;15.60;99.90;;;;;;5127588;27;20596;-74
2022/07/30 00:21:57;;;;;;;8.38;4.95;;;15.60;99.90;;;;;;5124585;27;20118;-74
2022/07/30 00:24:23;;;;;;;11.27;6.30;;;15.70;99.90;;;;;;5123354;27;20031;-74
2022/07/30 00:26:49;;;;;;;7.85;4.80;;;15.70;99.90;;;;;;5119273;27;20038;-75
2022/07/30 00:29:15;;;;;;;6.20;4.70;;;15.70;99.90;;;;;;5125842;27;20128;-74
2022/07/30 00:31:40;;;;;;;13.05;6.07;;;15.60;99.90;;;;;;5125636;27;20042;-74
2022/07/30 00:34:06;;;;;;;8.57;5.65;;;15.50;99.90;;;;;;5123508;27;20091;-74
2022/07/30 00:36:32;;;;;;;8.38;5.50;;;15.50;99.90;;;;;;5119871;27;20034;-74
2022/07/30 00:38:58;;;;;;;9.48;4.38;;;15.40;99.90;;;;;;5125387;27;20481;-74
2022/07/30 00:41:24;;;;;;;7.85;4.90;;;15.20;99.90;;;;;;5126365;27;20054;-74
2022/07/30 00:43:50;;;;;;;12.80;5.65;;;15.10;99.90;;;;;;5106838;27;20088;-74
2022/07/30 00:46:16;;;;;;;8.32;5.07;;;14.90;99.90;;;;;;5104091;27;20052;-74
2022/07/30 00:48:42;;;;;;;10.27;4.47;;;14.70;99.90;;;;;;5122127;27;20036;-74
2022/07/30 00:51:08;;;;;;;6.72;5.68;;;14.80;99.90;;;;;;5127957;27;20059;-74
2022/07/30 00:53:34;;;;;;;9.85;5.47;;;14.70;99.90;;;;;;5124127;27;20278;-74
2022/07/30 00:56:00;;;;;;;6.63;4.85;;;14.70;99.90;;;;;;5120470;27;20035;-74
2022/07/30 00:58:26;;;;;;;7.53;4.63;;;14.80;99.90;;;;;;5108342;27;20425;-74
2022/07/30 01:00:52;;;;;;;8.38;4.90;;;14.90;99.90;;;;;;5122872;27;20031;-74
2022/07/30 01:03:18;;;;;;;9.30;5.32;;;15.00;99.90;;;;;;5125372;27;20084;-74
2022/07/30 01:05:44;;;;;;;7.40;5.18;;;14.90;99.90;;;;;;5127415;27;20134;-74
2022/07/30 01:08:10;;;;;;;10.13;4.88;;;15.00;99.90;;;;;;5124282;27;20487;-74
2022/07/30 01:10:36;;;;;;;10.65;6.03;;;15.10;99.90;;;;;;5102974;28;20047;-74
2022/07/30 01:13:02;;;;;;;6.97;5.30;;;15.10;99.90;;;;;;5095138;28;20043;-73
2022/07/30 01:15:29;;;;;;;6.32;5.78;;;15.00;99.90;;;;;;5080376;28;20041;-74
2022/07/30 01:17:57;;;;;;;9.05;6.00;;;15.00;99.90;;;;;;5066672;28;20041;-74
2022/07/30 01:20:32;;;;;;;8.45;5.32;;;15.00;99.90;;;;;;5082209;28;20097;-74
2022/07/30 01:23:12;;;;;;;7.35;6.65;;;14.90;99.90;;;;;;5073946;28;20064;-73
2022/07/30 01:25:41;;;;;;;;;;;14.90;99.90;;;;;;5081166;28;20449;-74
2022/07/30 01:28:11;;;;;;;7.70;6.82;;;14.90;99.90;;;;;;5101302;28;20574;-73
2022/07/30 01:30:42;;;;;;;9.20;6.55;;;14.80;99.90;;;;;;5068160;28;20050;-73
2022/07/30 01:33:14;;;;;;;11.93;8.40;;;14.90;99.90;;;;;;5077686;28;20577;-73
2022/07/30 01:35:42;;;;;;;8.27;6.70;;;14.80;99.90;;;;;;5084628;28;20040;-74
2022/07/30 01:38:10;;;;;;;10.48;7.05;;;14.80;99.90;;;;;;5083572;28;20079;-73
2022/07/30 01:40:38;;;;;;;11.57;8.35;;;14.80;99.90;;;;;;5065940;28;20125;-73
2022/07/30 01:43:06;;;;;;;8.77;7.85;;;14.80;99.90;;;;;;5082311;28;20050;-73
2022/07/30 01:45:33;;;;;;;9.50;7.32;;;14.60;99.90;;;;;;5082555;28;20109;-74
2022/07/30 01:48:02;;;;;;;9.70;6.90;;;14.60;99.90;;;;;;5085801;28;20074;-73
2022/07/30 01:50:29;;;;;;;8.88;7.55;;;14.60;99.90;;;;;;5069064;28;20056;-74
2022/07/30 01:52:57;;;;;;;8.63;7.70;;;14.60;99.90;;;;;;5048785;23;22864;-70
2022/07/30 01:55:35;;;;;;;11.68;8.00;;;14.60;99.90;;;;;;5025286;28;20052;-73
2022/07/30 01:58:04;;;;;;;12.63;7.97;;;14.50;99.90;;;;;;5024062;28;20649;-73
2022/07/30 02:00:33;;;;;;;7.25;6.47;;;14.50;99.90;;;;;;5024586;28;20072;-73
2022/07/30 02:02:59;;;;;;;7.90;7.10;;;14.60;99.90;;;;;;5024373;28;20392;-71
2022/07/30 02:05:30;;;;;;;11.13;7.05;;;14.60;99.90;;;;;;5021881;28;20042;-72
2022/07/30 02:08:00;;;;;;;14.38;8.77;;;14.60;99.90;;;;;;5025570;28;20072;-73
2022/07/30 02:10:42;;;;;;;12.80;8.05;;;14.60;99.90;;;;;;5025171;28;20056;-72
2022/07/30 02:13:11;;;;;;;10.43;7.97;;;14.60;99.90;;;;;;5025942;28;20053;-72
2022/07/30 02:15:42;;;;;;;8.95;6.55;;;14.50;99.90;;;;;;5025430;28;20052;-73
2022/07/30 02:18:22;;;;;;;7.82;6.93;;;14.50;99.90;;;;;;5025659;28;20050;-74
2022/07/30 02:20:54;;;;;;;10.18;6.55;;;14.00;99.90;;;;;;5023273;28;20103;-72
2022/07/30 02:23:22;;;;;;;10.82;7.32;;;14.00;99.90;;;;;;5018718;28;20034;-72
2022/07/30 02:25:50;;;;;;;20.80;7.25;;;14.10;99.90;;;;;;5023387;28;20396;-72
2022/07/30 02:28:18;;;;;;;9.93;7.10;;;14.10;99.90;;;;;;5026144;28;20038;-72
2022/07/30 02:30:50;;;;;;;7.55;6.18;;;14.20;99.90;;;;;;5024391;28;20045;-72
2022/07/30 02:33:17;;;;;;;9.95;6.47;;;14.10;99.90;;;;;;5023827;28;20454;-72
2022/07/30 02:35:43;;;;;;;8.10;7.30;;;14.10;99.90;;;;;;5005650;28;20117;-72
2022/07/30 02:38:12;;;;;;;23.58;8.82;;;14.20;99.90;;;;;;5023704;28;20045;-72
2022/07/30 02:40:41;;;;;;;43.53;8.35;;;14.20;99.90;;;;;;5023634;28;20048;-72
2022/07/30 02:43:06;;;;;;;31.77;7.60;;;14.10;99.90;;;;;;5024416;28;20050;-72
2022/07/30 02:45:34;;;;;;;21.67;8.07;;;14.10;99.90;;;;;;5006913;28;20041;-71
2022/07/30 02:48:05;;;;;;;20.50;6.65;;;14.10;99.90;;;;;;5024505;28;20045;-72
2022/07/30 02:50:32;;;;;;;17.05;6.47;;;14.00;99.90;;;;;;5023104;28;20048;-72
2022/07/30 02:53:00;;;;;;;15.13;7.13;;;14.00;99.90;;;;;;5019124;28;20061;-72
2022/07/30 02:55:28;;;;;;;11.00;8.05;;;14.00;99.90;;;;;;5017596;28;20053;-71
2022/07/30 02:57:56;;;;;;;16.02;7.97;;;14.10;99.90;;;;;;5023913;28;20033;-72
2022/07/30 03:00:23;;;;;;;12.52;6.78;;;13.90;99.90;;;;;;5018434;28;20086;-71
2022/07/30 03:02:50;;;;;;;7.55;6.63;;;14.00;99.90;;;;;;5017721;28;20088;-71
2022/07/30 03:05:16;;;;;;;6.65;5.75;;;14.00;99.90;;;;;;5024553;28;20056;-72
2022/07/30 03:07:43;;;;;;;6.82;5.95;;;13.90;99.90;;;;;;5025206;28;20041;-71
2022/07/30 03:10:11;;;;;;;6.85;6.13;;;14.00;99.90;;;;;;5024288;28;20205;-71
2022/07/30 03:12:40;;;;;;;10.10;7.13;;;14.00;99.90;;;;;;5025622;28;20041;-71
2022/07/30 03:15:06;;;;;;;6.22;5.63;;;13.90;99.90;;;;;;5020027;28;20238;-71
2022/07/30 03:17:41;;;;;;;7.30;6.57;;;13.90;99.90;;;;;;5024874;28;20129;-72
2022/07/30 03:20:10;;;;;;;7.25;6.43;;;13.90;99.90;;;;;;5022308;28;20041;-72
2022/07/30 03:22:44;;;;;;;4.90;4.50;;;13.80;99.90;;;;;;5022540;28;20037;-72
2022/07/30 03:25:14;;;;;;;5.28;4.78;;;13.80;99.90;;;;;;5024310;28;20057;-72
2022/07/30 03:27:41;;;;;;;5.55;4.72;;;13.80;99.90;;;;;;5025623;28;20061;-73
2022/07/30 03:30:08;;;;;;;9.63;4.80;;;13.70;99.90;;;;;;5022107;28;20053;-72
2022/07/30 03:32:35;;;;;;;5.38;4.88;;;13.80;99.90;;;;;;5028607;28;20415;-72
2022/07/30 03:35:02;;;;;;;8.60;5.20;;;13.50;99.90;;;;;;5025772;28;20073;-72
2022/07/30 03:37:30;;;;;;;7.13;5.15;;;13.30;99.90;;;;;;5025898;28;20042;-72
2022/07/30 03:39:57;;;;;;;6.38;5.78;;;13.20;99.90;;;;;;5012246;28;20072;-72
2022/07/30 03:42:24;;;;;;;5.97;5.40;;;13.30;99.90;;;;;;5027811;28;20051;-73
2022/07/30 03:44:50;;;;;;;9.95;5.07;;;13.40;99.90;;;;;;5009885;28;20764;-72
2022/07/30 03:47:18;;;;;;;6.05;5.45;;;13.40;99.90;;;;;;5026622;28;20123;-73
2022/07/30 03:49:43;;;;;;;8.55;5.68;;;13.50;99.90;;;;;;5028423;28;20041;-72
2022/07/30 03:52:09;;;;;;;6.28;5.25;;;13.60;99.90;;;;;;5026327;28;20045;-73
2022/07/30 03:54:36;;;;;;;9.63;6.25;;;13.60;99.90;;;;;;5023646;28;20049;-72
2022/07/30 03:57:03;;;;;;;6.38;5.43;;;13.60;99.90;;;;;;5024520;28;20057;-71
2022/07/30 03:59:29;;;;;;;5.97;4.50;;;13.50;99.90;;;;;;5026700;28;20655;-73
2022/07/30 04:02:02;;;;;;;6.50;5.90;;;13.50;99.90;;;;;;5030349;28;20358;-72
2022/07/30 04:04:29;;;;;;;6.90;5.63;;;13.50;99.90;;;;;;5021559;28;20037;-72
2022/07/30 04:06:58;;;;;;;5.82;5.22;;;13.50;99.90;;;;;;5027521;28;20054;-72
2022/07/30 04:09:24;;;;;;;23.15;5.50;;;13.50;99.90;;;;;;5025119;28;20095;-73
2022/07/30 04:11:50;;;;;;;48.70;6.68;;;13.30;99.90;;;;;;5025416;28;20056;-72
2022/07/30 04:14:16;;;;;;;17.55;6.32;;;13.30;99.90;;;;;;5028757;28;20046;-72
2022/07/30 04:16:50;;;;;;;7.45;5.65;;;13.30;99.90;;;;;;5027390;28;20046;-71
2022/07/30 04:19:24;;;;;;;5.53;5.03;;;13.30;99.90;;;;;;5027989;28;20045;-71
2022/07/30 04:21:52;;;;;;;5.32;4.93;;;13.40;99.90;;;;;;5020149;28;20056;-72
2022/07/30 04:24:19;;;;;;;6.50;5.38;;;13.50;99.90;;;;;;5019986;28;20050;-71
2022/07/30 04:26:47;;;;;;;6.10;5.55;;;13.60;99.90;;;;;;5026536;28;20047;-72
2022/07/30 04:29:15;;;;;;;6.72;5.63;;;13.60;99.90;;;;;;5027900;28;20051;-71
2022/07/30 04:31:41;;;;;;;5.68;5.20;;;13.60;99.90;;;;;;5021256;28;20195;-72
2022/07/30 04:34:11;;;;;;;6.53;4.20;;;13.70;99.90;;;;;;5025574;28;20159;-73
2022/07/30 04:36:39;;;;;;;7.30;4.80;;;13.80;99.90;;;;;;5026265;28;20091;-73
2022/07/30 04:39:04;;;;;;;5.07;4.68;;;13.80;99.90;;;;;;5026980;28;20034;-72
2022/07/30 04:41:30;;;;;;;5.85;5.35;;;13.80;99.90;;;;;;5022120;28;20116;-72
2022/07/30 04:43:56;;;;;;;5.18;4.78;;;13.80;99.90;;;;;;5026194;28;20038;-71
2022/07/30 04:46:22;;;;;;;5.82;5.32;;;14.20;99.90;;;;;;5025807;28;20052;-73
2022/07/30 04:48:48;;;;;;;5.75;5.25;;;14.60;99.90;;;;;;5024506;28;20033;-72
2022/07/30 04:51:27;;;;;;;6.68;5.30;;;14.40;99.90;;;;;;5024579;28;20103;-73
2022/07/30 04:53:54;;;;;;;6.80;6.03;;;14.20;99.90;;;;;;5022577;28;20109;-71
2022/07/30 04:56:21;;;;;;;5.97;5.45;;;14.30;99.90;;;;;;5024556;28;20053;-72
2022/07/30 04:58:47;;;;;;;6.65;6.05;;;14.00;99.90;;;;;;5010221;28;20042;-71
2022/07/30 05:01:23;;;;;;;9.70;5.65;;;14.10;99.90;;;;;;5023750;28;20073;-71
2022/07/30 05:03:51;;;;;;;7.88;6.78;;;14.00;99.90;;;;;;5025333;28;20095;-69
2022/07/30 05:06:18;;;;;;;7.50;6.38;;;14.00;99.90;;;;;;5028001;28;20075;-71
2022/07/30 05:08:44;;;;;;;8.88;7.15;;;14.00;99.90;;;;;;5026113;28;20041;-71
2022/07/30 05:11:12;;;;;;;10.82;6.95;;;14.10;99.90;;;;;;5024735;28;20052;-71
2022/07/30 05:13:43;;;;;;;15.82;9.48;;;14.00;99.90;;;;;;5022134;28;20107;-73
2022/07/30 05:16:10;;;;;;;11.25;7.55;;;14.00;99.90;;;;;;5026611;28;20076;-71
2022/07/30 05:18:36;;;;;;;18.13;6.97;;;14.20;99.90;;;;;;5023746;28;20049;-72
2022/07/30 05:21:02;;;;;;;11.32;8.13;;;14.20;99.90;;;;;;5025501;28;20049;-72
2022/07/30 05:23:27;;;;;;;6.25;5.68;;;14.10;99.90;;;;;;5023421;28;20366;-72
2022/07/30 05:25:53;;;;;;;6.75;6.05;;;14.30;99.90;;;;;;5025628;28;20050;-72
2022/07/30 05:28:19;;;;;;;6.80;6.20;;;14.20;99.90;;;;;;5024017;28;20037;-72
2022/07/30 05:30:44;;;;;;;7.72;6.57;;;14.40;99.90;;;;;;5023470;28;20095;-72
2022/07/30 05:33:10;;;;;;;6.60;5.38;;;14.50;99.90;;;;;;5016486;28;20089;-72
2022/07/30 05:35:36;;;;;;;6.50;5.90;;;14.50;99.90;;;;;;5026727;28;20049;-72
2022/07/30 05:38:01;;;;;;;6.35;5.85;;;14.50;99.90;;;;;;5024334;28;20124;-72
2022/07/30 05:40:27;;;;;;;5.88;5.30;;;14.60;99.90;;;;;;5007858;28;20049;-72
2022/07/30 05:42:53;;;;;;;6.78;6.13;;;14.90;99.90;;;;;;5022742;28;20100;-72
2022/07/30 05:45:18;;;;;;;8.73;6.47;;;14.80;99.90;;;;;;5013747;28;20049;-71
2022/07/30 05:47:44;;;;;;;17.80;6.30;;;14.90;99.90;;;;;;5023438;28;20037;-71
2022/07/30 05:50:11;;;;;;;8.02;7.20;;;14.90;99.90;;;;;;5023750;28;20180;-72
2022/07/30 05:52:37;;;;;;;13.82;7.50;;;15.10;99.90;;;;;;5020862;28;20072;-72
2022/07/30 05:55:03;;;;;;;16.50;7.47;;;15.30;99.90;;;;;;5023745;28;20041;-71
2022/07/30 05:57:29;;;;;;;11.18;7.72;;;15.20;99.90;;;;;;5021519;28;20040;-71
2022/07/30 05:59:54;;;;;;;35.58;8.38;;;15.30;99.90;;;;;;5018569;28;20049;-71
2022/07/30 06:02:20;;;;;;;11.57;8.50;;;15.40;99.90;;;;;;5021111;28;21001;-72
2022/07/30 06:04:46;;;;;;;13.52;9.10;;;15.40;99.90;;;;;;5022476;28;20045;-71
2022/07/30 06:07:11;;;;;;;11.55;9.13;;;15.80;99.90;;;;;;5024533;28;20041;-71
2022/07/30 06:09:37;;;;;;;13.93;9.93;;;15.80;99.90;;;;;;5007497;28;20049;-72
2022/07/30 06:12:03;;;;;;;10.90;8.82;;;16.00;99.90;;;;;;5022663;28;20045;-71
2022/07/30 06:14:30;;;;;;;16.95;11.48;;;15.90;99.90;;;;;;5023742;28;20481;-71
2022/07/30 06:16:56;;;;;;;13.38;8.95;;;16.30;99.90;;;;;;5025618;28;20093;-72
2022/07/30 06:19:22;;;;;;;13.15;9.25;;;16.30;99.90;;;;;;5024952;28;20087;-71
2022/07/30 06:21:48;;;;;;;14.82;10.32;;;16.60;99.90;;;;;;5024169;28;20042;-72
2022/07/30 06:24:14;;;;;;;16.95;10.00;;;16.50;99.90;;;;;;5023494;28;20042;-71
2022/07/30 06:26:39;;;;;;;14.35;9.63;;;16.60;99.90;;;;;;5022419;28;20164;-71
2022/07/30 06:29:06;;;;;;;13.68;9.63;;;16.50;99.90;;;;;;5024366;28;20041;-71
2022/07/30 06:31:31;;;;;;;12.80;8.35;;;16.80;99.90;;;;;;5025395;28;20096;-72
2022/07/30 06:33:57;;;;;;;11.38;8.73;;;17.10;99.90;;;;;;5023481;28;20034;-71
2022/07/30 06:36:23;;;;;;;14.88;8.63;;;17.30;99.90;;;;;;5026176;28;20037;-73
2022/07/30 06:38:48;;;;;;;15.68;8.23;;;17.40;99.90;;;;;;5022502;28;20065;-71
2022/07/30 06:41:14;;;;;;;16.85;8.25;;;17.60;99.90;;;;;;5022485;28;20038;-72
2022/07/30 06:43:40;;;;;;;13.00;7.55;;;17.50;99.90;;;;;;5020000;28;20072;-72
2022/07/30 06:46:06;;;;;;;14.23;7.00;;;17.60;99.90;;;;;;5025596;28;20048;-73
2022/07/30 06:48:32;;;;;;;13.15;7.95;;;17.70;99.90;;;;;;5023394;28;20084;-74
2022/07/30 06:50:57;;;;;;;12.75;6.88;;;17.90;99.90;;;;;;5024639;28;20052;-71
2022/07/30 06:53:23;;;;;;;12.25;7.22;;;17.90;99.90;;;;;;5022549;28;20062;-73
2022/07/30 06:55:49;;;;;;;15.77;8.02;;;18.10;99.90;;;;;;5025066;28;20095;-73
2022/07/30 06:58:15;;;;;;;10.68;7.60;;;18.10;99.90;;;;;;5023838;28;20053;-72
2022/07/30 07:00:43;;;;;;;17.02;8.48;;;18.40;99.90;;;;;;5021793;28;20128;-73
2022/07/30 07:03:11;;;;;;;14.98;7.38;;;18.20;99.90;;;;;;5024344;28;20046;-70
2022/07/30 07:05:38;;;;;;;16.08;6.97;;;18.30;99.90;;;;;;5010511;28;20038;-70
2022/07/30 07:08:04;;;;;;;8.75;6.35;;;18.40;99.90;;;;;;5025111;28;20081;-69
2022/07/30 07:10:30;;;;;;;8.85;5.97;;;18.50;99.90;;;;;;5026478;28;20089;-71
2022/07/30 07:12:56;;;;;;;12.48;6.68;;;18.40;99.90;;;;;;5028944;28;20052;-69
2022/07/30 07:15:21;;;;;;;13.25;5.80;;;18.80;99.90;;;;;;5025033;28;20076;-69
2022/07/30 07:17:47;;;;;;;13.15;6.50;;;19.10;99.90;;;;;;5028280;28;20411;-69
2022/07/30 07:20:13;;;;;;;10.57;5.65;;;18.80;99.90;;;;;;5007548;28;20090;-69
2022/07/30 07:22:38;;;;;;;10.52;6.45;;;18.80;99.90;;;;;;5028118;28;20049;-70
2022/07/30 07:25:05;;;;;;;11.30;6.68;;;19.50;99.90;;;;;;5024170;28;20045;-70
2022/07/30 07:27:30;;;;;;;12.70;5.50;;;19.80;99.90;;;;;;5025370;28;20042;-69
2022/07/30 07:29:56;;;;;;;12.40;5.70;;;21.40;99.90;;;;;;5026623;28;20423;-70
2022/07/30 07:32:22;;;;;;;9.85;4.85;;;20.80;99.90;;;;;;5010410;28;20555;-71
2022/07/30 07:34:47;;;;;;;9.80;4.22;;;20.20;99.90;;;;;;5027242;28;20479;-70
2022/07/30 07:37:14;;;;;;;10.70;5.15;;;19.80;99.90;;;;;;5027990;28;20045;-71
2022/07/30 07:39:40;;;;;;;9.82;4.00;;;20.70;99.90;;;;;;5025226;28;20412;-71
2022/07/30 07:42:06;;;;;;;10.38;5.13;;;21.80;99.90;;;;;;5028097;28;20034;-70
2022/07/30 07:44:31;;;;;;;12.63;6.03;;;21.00;99.90;;;;;;5013729;28;20096;-70
2022/07/30 07:46:57;;;;;;;10.15;5.03;;;20.30;99.90;;;;;;5025242;28;20052;-70
2022/07/30 07:49:23;;;;;;;7.57;4.13;;;20.20;99.90;;;;;;5024002;28;20454;-70
2022/07/30 07:51:49;;;;;;;8.30;3.45;;;20.30;99.90;;;;;;5025300;28;20049;-68
2022/07/30 07:54:15;;;;;;;8.85;4.20;;;20.50;99.90;;;;;;5026343;28;20046;-71
2022/07/30 07:56:41;;;;;;;10.02;3.65;;;20.30;99.90;;;;;;5028437;28;20049;-71
2022/07/30 07:59:07;;;;;;;8.32;3.28;;;20.80;99.90;;;;;;5022572;28;20463;-70
2022/07/30 08:01:33;;;;;;;11.32;4.72;;;20.70;99.90;;;;;;5026130;28;20519;-71
2022/07/30 08:03:59;;;;;;;9.48;3.15;;;20.30;99.90;;;;;;5027359;28;20060;-70
2022/07/30 08:06:25;;;;;;;9.88;3.80;;;20.20;99.90;;;;;;5034042;28;20036;-71
2022/07/30 08:08:50;;;;;;;5.13;3.97;;;20.20;99.90;;;;;;5026780;28;20053;-70
2022/07/30 08:11:16;;;;;;;9.05;3.70;;;20.00;99.90;;;;;;5028437;28;20045;-71
2022/07/30 08:13:42;;;;;;;7.15;3.00;;;20.20;99.90;;;;;;5026092;28;20101;-72
2022/07/30 08:16:09;;;;;;;10.93;4.40;;;20.40;99.90;;;;;;5025848;28;20510;-71
2022/07/30 08:18:37;;;;;;;12.15;3.60;;;20.60;99.90;;;;;;5025298;28;20045;-72
2022/07/30 08:21:04;;;;;;;8.45;2.92;;;20.80;99.90;;;;;;5026862;28;20046;-70
2022/07/30 08:23:30;;;;;;;8.73;3.50;;;20.90;99.90;;;;;;5026440;28;20029;-71
2022/07/30 08:25:57;;;;;;;4.93;2.88;;;20.80;99.90;;;;;;5023687;28;20040;-71
2022/07/30 08:28:23;;;;;;;6.07;2.40;;;21.20;99.90;;;;;;5025400;28;20040;-71
2022/07/30 08:30:49;;;;;;;5.50;2.75;;;21.10;99.90;;;;;;5027181;28;20048;-72
2022/07/30 08:33:15;;;;;;;10.77;2.30;;;21.20;99.90;;;;;;5025903;28;20046;-72
2022/07/30 08:35:40;;;;;;;6.25;2.45;;;21.40;99.90;;;;;;5026463;28;20042;-72
2022/07/30 08:38:06;;;;;;;7.93;2.83;;;21.70;99.90;;;;;;5026176;28;20049;-72
2022/07/30 08:40:33;;;;;;;9.23;2.88;;;21.70;99.90;;;;;;5025736;28;20120;-69
2022/07/30 08:43:02;;;;;;;10.18;2.65;;;21.90;99.90;;;;;;5027212;28;20053;-70
2022/07/30 08:45:31;;;;;;;6.43;2.28;;;21.60;99.90;;;;;;5027489;28;20129;-71
2022/07/30 08:48:00;;;;;;;10.50;3.07;;;21.00;99.90;;;;;;5025788;28;20045;-71
2022/07/30 08:50:26;;;;;;;9.95;3.28;;;20.60;99.90;;;;;;5024211;28;20554;-71
2022/07/30 08:52:54;;;;;;;4.35;1.95;;;20.60;99.90;;;;;;5023008;28;20061;-71
2022/07/30 08:55:23;;;;;;;13.70;3.45;;;21.10;99.90;;;;;;5027013;28;20049;-71
2022/07/30 08:57:50;;;;;;;6.03;3.40;;;21.40;99.90;;;;;;5026042;28;20037;-70
2022/07/30 09:00:16;;;;;;;3.80;2.03;;;21.60;99.90;;;;;;5026320;28;20038;-70
2022/07/30 09:02:42;;;;;;;4.93;2.30;;;21.50;99.90;;;;;;5024802;28;20132;-70
2022/07/30 09:05:09;;;;;;;6.10;2.47;;;21.80;99.90;;;;;;5026584;28;20497;-71
2022/07/30 09:07:35;;;;;;;5.50;2.40;;;21.80;99.90;;;;;;5008005;28;20072;-70
2022/07/30 09:10:05;;;;;;;7.90;3.33;;;21.70;99.90;;;;;;5022299;28;20088;-71
2022/07/30 09:12:44;;;;;;;18.48;3.17;;;21.90;99.90;;;;;;5023434;28;20095;-70
2022/07/30 09:15:19;;;;;;;8.38;2.65;;;22.10;99.90;;;;;;5024758;28;20590;-71
2022/07/30 09:18:00;;;;;;;6.47;2.28;;;21.90;99.90;;;;;;5021847;28;20049;-70
2022/07/30 09:20:31;;;;;;;11.40;2.85;;;22.00;99.90;;;;;;5017321;28;20046;-70
2022/07/30 09:22:59;;;;;;;4.07;2.13;;;22.10;99.90;;;;;;5018336;28;20402;-71
2022/07/30 09:25:37;;;;;;;10.93;2.70;;;22.20;99.90;;;;;;5024254;28;20056;-69
2022/07/30 09:28:04;;;;;;;4.93;1.80;;;22.30;99.90;;;;;;5023274;28;20422;-71
2022/07/30 09:30:43;;;;;;;8.02;2.25;;;22.20;99.90;;;;;;5019861;28;20052;-71
2022/07/30 09:33:08;;;;;;;9.60;3.25;;;22.20;99.90;;;;;;5003721;28;20459;-71
2022/07/30 09:35:34;;;;;;;4.40;1.88;;;22.10;99.90;;;;;;5023060;28;20127;-71
2022/07/30 09:38:00;;;;;;;8.52;2.10;;;22.20;99.90;;;;;;5025111;28;20168;-71
2022/07/30 09:40:26;;;;;;;5.65;2.08;;;22.40;99.90;;;;;;5024370;28;20045;-71
2022/07/30 09:43:09;;;;;;;15.02;3.25;;;22.40;99.90;;;;;;5025975;28;20041;-71
2022/07/30 09:45:35;;;;;;;6.28;2.50;;;22.30;99.90;;;;;;5020616;28;20455;-72
2022/07/30 09:48:03;;;;;;;4.07;1.52;;;22.50;99.90;;;;;;5023944;28;20059;-69
2022/07/30 09:50:29;;;;;;;6.63;2.38;;;22.60;99.90;;;;;;5024033;28;20115;-71
2022/07/30 09:53:04;;;;;;;4.55;2.47;;;22.90;99.90;;;;;;5024081;28;20061;-72
2022/07/30 09:55:32;;;;;;;12.30;3.35;;;22.20;99.90;;;;;;5033716;28;20240;-71
2022/07/30 09:58:00;;;;;;;6.80;2.75;;;22.10;99.90;;;;;;5024822;28;20025;-72
2022/07/30 10:00:28;;;;;;;10.82;2.40;;;22.20;99.90;;;;;;5023589;28;20037;-72
2022/07/30 10:02:54;;;;;;;10.20;2.00;;;22.30;99.90;;;;;;5016742;28;20060;-72
2022/07/30 10:05:20;;;;;;;6.97;3.28;;;22.50;99.90;;;;;;5019721;28;20052;-72
2022/07/30 10:07:47;;;;;;;9.95;3.35;;;22.50;99.90;;;;;;5017637;28;20124;-74
2022/07/30 10:10:14;;;;;;;4.68;2.40;;;22.50;99.90;;;;;;5024748;28;20041;-73
2022/07/30 10:12:39;;;;;;;6.20;2.10;;;22.10;99.90;;;;;;5024530;28;20443;-73
2022/07/30 10:15:06;;;;;;;9.27;2.60;;;22.20;99.90;;;;;;5025056;28;20099;-72
2022/07/30 10:17:33;;;;;;;6.53;3.05;;;22.40;99.90;;;;;;5024634;28;20041;-73
2022/07/30 10:19:59;;;;;;;6.97;2.38;;;22.60;99.90;;;;;;5021945;28;20042;-73
2022/07/30 10:22:25;;;;;;;7.13;2.08;;;22.80;99.90;;;;;;5024746;28;20407;-73
2022/07/30 10:24:52;;;;;;;5.15;2.00;;;22.90;99.90;;;;;;5007208;28;20052;-73
2022/07/30 10:27:19;;;;;;;4.60;2.20;;;22.90;99.90;;;;;;5021976;28;20044;-74
2022/07/30 10:29:45;;;;;;;11.35;3.85;;;23.00;99.90;;;;;;5025225;28;20436;-71
2022/07/30 10:32:11;;;;;;;10.30;2.15;;;23.40;99.90;;;;;;5022942;28;20051;-74
2022/07/30 10:34:38;;;;;;;3.85;2.50;;;23.40;99.90;;;;;;5021428;28;20120;-74
2022/07/30 10:37:05;;;;;;;5.32;2.10;;;23.60;99.90;;;;;;5020200;28;20385;-74
2022/07/30 10:39:40;;;;;;;6.78;2.10;;;23.60;99.90;;;;;;5027727;28;20049;-74
2022/07/30 10:42:34;;;;;;;4.28;1.88;;;23.40;99.90;;;;;;5028441;28;20354;-74
2022/07/30 10:45:18;;;;;;;4.55;2.60;;;23.10;99.90;;;;;;5029594;28;20408;-74
2022/07/30 10:47:46;;;;;;;5.85;1.73;;;22.80;99.90;;;;;;5028557;28;20045;-73
2022/07/30 10:50:16;;;;;;;9.18;3.22;;;23.00;99.90;;;;;;5023757;28;20041;-73
2022/07/30 10:52:49;;;;;;;3.33;1.67;;;23.00;99.90;;;;;;5023729;28;20065;-73
2022/07/30 10:55:18;;;;;;;5.40;1.88;;;23.40;99.90;;;;;;5025717;28;20416;-73
2022/07/30 10:58:06;;;;;;;7.22;2.30;;;23.30;99.90;;;;;;5024378;28;20403;-71
2022/07/30 11:00:53;;;;;;;6.18;2.53;;;22.60;99.90;;;;;;5018875;28;20116;-73
2022/07/30 11:03:26;;;;;;;9.98;2.50;;;22.40;99.90;;;;;;5022438;28;20056;-68
2022/07/30 11:06:13;;;;;;;7.95;2.33;;;22.90;99.90;;;;;;5009749;28;20046;-72
2022/07/30 11:08:40;;;;;;;9.25;2.67;;;23.10;99.90;;;;;;5037042;28;20089;-72
2022/07/30 11:11:27;;;;;;;11.20;3.95;;;23.00;99.90;;;;;;5025063;28;20492;-72
2022/07/30 11:14:01;;;;;;;5.72;1.95;;;22.80;99.90;;;;;;5017769;28;20132;-73
2022/07/30 11:16:32;;;;;;;5.88;2.03;;;22.70;99.90;;;;;;5026563;28;20140;-73
2022/07/30 11:19:23;;;;;;;5.97;2.00;;;22.90;99.90;;;;;;5024702;28;20132;-73
2022/07/30 11:22:30;;;;;;;13.75;3.08;;;23.20;99.90;;;;;;5013985;28;20081;-68
2022/07/30 11:24:56;;;;;;;4.60;2.50;;;23.30;99.90;;;;;;5028129;28;20495;-74
2022/07/30 11:27:36;;;;;;;8.70;2.97;;;23.40;99.90;;;;;;5025947;28;20052;-74
2022/07/30 11:30:30;;;;;;;3.70;1.60;;;23.80;99.90;;;;;;5020824;28;20056;-72
2022/07/30 11:33:21;;;;;;;3.55;1.20;;;23.40;99.90;;;;;;5016465;28;20053;-73
2022/07/30 11:36:05;;;;;;;3.17;1.33;;;23.40;99.90;;;;;;5028299;28;20041;-73
2022/07/30 11:38:57;;;;;;;6.30;1.90;;;23.40;99.90;;;;;;5026185;28;20037;-73
2022/07/30 11:41:24;;;;;;;3.92;1.80;;;23.50;99.90;;;;;;5027070;28;20080;-74
2022/07/30 11:44:30;;;;;;;4.03;1.88;;;23.20;99.90;;;;;;5025272;28;20081;-73
2022/07/30 11:46:56;;;;;;;6.30;1.73;;;23.30;99.90;;;;;;5025004;28;20053;-72
2022/07/30 11:49:21;;;;;;;4.07;1.65;;;22.90;99.90;;;;;;5028350;28;20041;-73
2022/07/30 11:51:48;;;;;;;4.32;1.30;;;23.10;99.90;;;;;;5020467;28;20405;-72
2022/07/30 11:54:14;;;;;;;5.13;2.42;;;22.90;99.90;;;;;;5026044;28;20049;-73
2022/07/30 11:56:51;;;;;;;4.78;2.25;;;23.00;99.90;;;;;;5025962;28;20073;-73
2022/07/30 11:59:17;;;;;;;6.18;2.15;;;23.30;99.90;;;;;;5027167;28;20125;-72
2022/07/30 12:01:47;;;;;;;8.40;1.48;;;23.00;99.90;;;;;;5023287;28;20132;-75
2022/07/30 12:04:13;;;;;;;5.20;1.80;;;23.30;99.90;;;;;;5026634;28;20388;-73
2022/07/30 12:06:43;;;;;;;4.30;2.08;;;23.30;99.90;;;;;;5026112;28;20060;-73
2022/07/30 12:09:09;;;;;;;5.50;2.22;;;23.30;99.90;;;;;;5024705;28;20046;-71
2022/07/30 12:11:36;;;;;;;8.00;1.85;;;23.40;99.90;;;;;;5024462;28;20048;-75
2022/07/30 12:14:03;;;;;;;3.05;1.95;;;23.40;99.90;;;;;;5020502;28;20042;-72
2022/07/30 12:16:31;;;;;;;4.80;2.00;;;23.10;99.90;;;;;;5023075;28;20064;-71
2022/07/30 12:19:06;;;;;;;4.88;1.30;;;23.00;99.90;;;;;;5025954;28;20511;-72
2022/07/30 12:21:33;;;;;;;1.48;0.80;;;23.20;99.90;;;;;;5026040;28;20124;-72
2022/07/30 12:24:06;;;;;;;7.65;1.17;;;23.40;99.90;;;;;;5025345;28;20041;-72
2022/07/30 12:26:32;;;;;;;4.00;1.73;;;23.50;99.90;;;;;;5025137;28;20065;-71
2022/07/30 12:29:02;;;;;;;6.68;1.42;;;23.60;99.90;;;;;;5024917;28;20046;-72
2022/07/30 12:31:28;;;;;;;2.57;1.53;;;23.60;99.90;;;;;;5026704;28;20092;-72
2022/07/30 12:33:57;;;;;;;2.72;1.40;;;23.70;99.90;;;;;;5025082;28;20561;-72
2022/07/30 12:36:31;;;;;;;6.53;0.90;;;23.80;99.90;;;;;;5025847;28;20171;-72
2022/07/30 12:38:58;;;;;;;3.55;1.05;;;23.60;99.90;;;;;;5025186;28;20077;-72
2022/07/30 12:41:44;;;;;;;6.85;1.35;;;23.70;99.90;;;;;;5026653;28;20049;-73
2022/07/30 12:44:40;;;;;;;2.58;0.90;;;23.70;99.90;;;;;;5026491;28;20120;-73
2022/07/30 12:47:25;;;;;;;1.48;1.13;;;23.80;99.90;;;;;;5024853;28;20496;-72
2022/07/30 12:49:59;;;;;;;4.43;1.17;;;23.80;99.90;;;;;;5026311;28;20286;-72